Hickman, Kentucky
Current Conditions -  °F | °C
As of 12:15 PM on Friday 28 Nov 2014 (Local Time) from KUCY Reporting Station
Clear Clear  
Wind Chill: 38°   Ceiling: Unl
Heat Index: 45°   Visibility: 10mi
Dew Point: 30°   Wind: 14mph
Humidity: 57%   Direction: 170°S
Pressure: 30.25"   Gusts: NA
Location:  36.57°N, 89.19°W
Report Text: KUCY 281815Z AUTO 17012KT 10SM CLR 07/M01 A3025 RMK
Loading
Personal Weather Stations






























Interactive Weather Map New forecast layout! Learn more

10-Day Weather Forecast

Advertisements
Track Severe Weather on mobile